Home   Weather   Germany   Marl   Past weeks
Flag for Germany

Past Weather in Marl, North Rhine-Westphalia, Germany — Yesterday and Last 2 Weeks

Currently: 37 °F. Mostly cloudy. (Weather station: Dortmund / Wickede, Germany). See more current weather

Past Weather in Marl — Graph

°F

Marl Temperature Yesterday

Maximum temperature yesterday: 41 °F (at 3:20 pm)
Minimum temperature yesterday: 27 °F (at 3:50 am)
Average temperature yesterday: 34 °F

High & Low Weather Summary for the Past Weeks

 TemperatureHumidityPressure
High66 °F (Feb 21, 3:20 pm)100% (Feb 26, 3:20 am)30.72 "Hg (Feb 26, 3:20 am)
Low25 °F (Mar 6, 4:50 am)27% (Mar 2, 3:20 pm)29.89 "Hg (Feb 21, 12:20 am)
Average46 °F70%30.36 "Hg
* Reported Feb 21 12:20 am — Mar 8 12:20 am, Marl. Weather by CustomWeather, © 2021

Note: Actual official high and low records may vary slightly from our data, if they occured in-between our weather recording intervals... More about our weather records

Marl Weather History for the Previous 24 Hours

Scroll right to see more
 ConditionsComfort  
Time TempWeatherWind HumidityBarometerVisibility
12:20 am
Mon, Mar 8
37 °FOvercast.5 mph70%30.18 "HgN/A
11:50 pm
Sun, Mar 7
37 °FOvercast.3 mph70%30.18 "HgN/A
11:20 pm37 °FOvercast.3 mph70%30.18 "HgN/A
10:50 pm37 °FOvercast.3 mph70%30.18 "HgN/A
10:20 pm37 °FOvercast.2 mph65%30.21 "HgN/A
9:50 pm37 °FOvercast.2 mph65%30.18 "HgN/A
9:20 pm36 °FOvercast.3 mph70%30.18 "HgN/A
8:50 pm37 °FOvercast.5 mph60%30.18 "HgN/A
8:20 pm36 °FOvercast.3 mph70%30.18 "HgN/A
7:50 pm37 °FOvercast.3 mph60%30.18 "HgN/A
7:20 pm37 °FPassing clouds.3 mph60%30.18 "HgN/A
6:50 pm37 °FClear.5 mph60%30.18 "Hg10 mi
6:20 pm37 °FPassing clouds.6 mph60%30.18 "HgN/A
5:50 pm39 °FSunny.6 mph52%30.18 "Hg10 mi
5:20 pm39 °FPassing clouds.8 mph56%30.18 "HgN/A
4:50 pm41 °FScattered clouds.9 mph49%30.18 "HgN/A
4:20 pm41 °FScattered clouds.7 mph49%30.18 "HgN/A
3:50 pm41 °FPassing clouds.8 mph53%30.18 "HgN/A
3:20 pm41 °FScattered clouds.6 mph53%30.21 "HgN/A
2:50 pm39 °FScattered clouds.8 mph56%30.21 "HgN/A
2:20 pm39 °FPartly sunny.10 mph52%30.21 "HgN/A
1:20 pm39 °FPartly sunny.7 mph56%30.24 "HgN/A
12:50 pm39 °FPartly sunny.5 mph61%30.27 "HgN/A
12:20 pm39 °FPartly sunny.6 mph65%30.27 "HgN/A
11:50 am37 °FScattered clouds.7 mph65%30.27 "HgN/A
11:20 am37 °FScattered clouds.5 mph70%30.27 "HgN/A
10:50 am37 °FPassing clouds.3 mph75%30.27 "HgN/A
10:20 am36 °FSunny.3 mph81%30.27 "Hg10 mi
9:50 am34 °FSunny.No wind75%30.27 "Hg10 mi
9:20 am34 °FPartly sunny.No wind75%30.30 "HgN/A
8:20 am28 °FSunny.7 mph86%30.30 "Hg10 mi
7:50 am27 °FPassing clouds.3 mph93%30.30 "HgN/A
7:20 am27 °FSunny.7 mph86%30.30 "Hg10 mi
6:50 am27 °FClear.8 mph86%30.30 "Hg10 mi
6:20 am27 °FClear.8 mph86%30.30 "Hg10 mi
5:50 am27 °FClear.7 mph93%30.30 "Hg10 mi
5:20 am27 °FClear.8 mph86%30.30 "Hg10 mi
4:50 am27 °FClear.7 mph86%30.30 "HgN/A
4:20 am27 °FClear.7 mph86%30.33 "HgN/A
3:50 am27 °FClear.7 mph93%30.33 "HgN/A
3:20 am28 °FClear.6 mph86%30.33 "HgN/A
2:50 am30 °FClear.No wind86%30.33 "HgN/A
2:20 am28 °FClear.1 mph93%30.36 "HgN/A
1:50 am30 °FClear.2 mph80%30.36 "HgN/A
1:20 am30 °FClear.5 mph80%30.36 "HgN/A
Weather by CustomWeather, © 2021

See weather overview